Time;durP1;ratioP1;P1;durP2;ratioP2;P2;SDS_P1;SDS_P2;PMS_P1;PMS_P2;Temp;Humidity;BMP_temperature;BMP_pressure;BME280_temperature;BME280_humidity;BME280_pressure;Samples;Min_cycle;Max_cycle;Signal;HPM_P1;HPM_P2
2022/09/15 00:01:05;;;;;;;6.08;2.75;;;;;;;17.82;100.00;96821.66;1691881;83;28077;-88
2022/09/15 00:03:49;;;;;;;4.87;2.95;;;;;;;17.78;100.00;96821.20;1701913;82;28078;-89
2022/09/15 00:06:16;;;;;;;4.85;3.15;;;;;;;17.76;100.00;96823.23;1678420;84;27997;-88
2022/09/15 00:08:43;;;;;;;4.80;3.35;;;;;;;17.79;100.00;96824.16;1692735;83;28065;-89
2022/09/15 00:11:25;;;;;;;3.62;3.22;;;;;;;17.80;100.00;96827.12;1694010;84;28085;-89
2022/09/15 00:14:00;;;;;;;5.10;3.62;;;;;;;17.82;100.00;96827.77;1693762;83;28084;-89
2022/09/15 00:16:29;;;;;;;11.00;3.50;;;;;;;17.85;100.00;96835.81;1691001;84;28151;-89
2022/09/15 00:18:56;;;;;;;6.10;3.30;;;;;;;17.88;100.00;96829.66;1690894;84;28164;-89
2022/09/15 00:21:25;;;;;;;7.28;3.60;;;;;;;17.86;100.00;96821.58;1692733;82;28069;-89
2022/09/15 00:23:53;;;;;;;3.47;2.98;;;;;;;17.82;100.00;96817.18;1667985;85;28236;-89
2022/09/15 00:26:23;;;;;;;4.25;3.20;;;;;;;17.81;100.00;96824.80;1692452;84;28108;-89
2022/09/15 00:28:51;;;;;;;6.03;3.40;;;;;;;17.80;100.00;96832.92;1705856;82;28093;-89
2022/09/15 00:31:22;;;;;;;4.58;3.30;;;;;;;17.80;100.00;96813.08;1706924;82;28165;-89
2022/09/15 00:33:50;;;;;;;4.30;2.37;;;;;;;17.81;100.00;96810.25;1658151;85;28100;-89
2022/09/15 00:36:19;;;;;;;2.67;2.42;;;;;;;17.82;100.00;96803.12;1698313;83;28136;-88
2022/09/15 00:38:47;;;;;;;6.37;2.62;;;;;;;17.84;100.00;96801.91;1693522;84;28156;-89
2022/09/15 00:41:15;;;;;;;4.72;2.98;;;;;;;17.86;100.00;96807.84;1663565;85;28104;-88
2022/09/15 00:43:49;;;;;;;4.35;2.60;;;;;;;17.88;100.00;96807.66;1690575;84;28061;-88
2022/09/15 00:46:18;;;;;;;7.03;2.92;;;;;;;17.87;100.00;96816.10;1688520;84;28135;-88
2022/09/15 00:48:59;;;;;;;4.58;2.60;;;;;;;17.86;100.00;96817.11;1704162;82;28105;-88
2022/09/15 00:51:44;;;;;;;3.05;2.55;;;;;;;17.84;100.00;96812.50;1693971;84;28069;-89
2022/09/15 00:54:24;;;;;;;5.12;2.55;;;;;;;17.83;100.00;96810.06;1689257;84;28067;-89
2022/09/15 00:56:59;;;;;;;3.72;2.10;;;;;;;17.83;100.00;96811.39;1701244;82;28123;-88
2022/09/15 00:59:28;;;;;;;3.37;2.30;;;;;;;17.82;100.00;96814.53;1651381;84;28080;-89
2022/09/15 01:02:18;;;;;;;4.12;2.55;;;;;;;17.85;100.00;96812.81;1689401;83;40934;-88
2022/09/15 01:05:02;;;;;;;3.17;2.80;;;;;;;17.87;100.00;96794.92;1651068;84;28004;-89
2022/09/15 01:07:35;;;;;;;4.17;2.55;;;;;;;17.88;100.00;96787.30;1688468;82;28070;-89
2022/09/15 01:10:23;;;;;;;3.17;2.40;;;;;;;17.88;100.00;96781.19;1679177;83;28020;-89
2022/09/15 01:12:50;;;;;;;7.03;2.55;;;;;;;17.86;100.00;96780.05;1673070;84;28112;-89
2022/09/15 01:15:16;;;;;;;5.87;2.40;;;;;;;17.87;100.00;96784.84;1698969;82;28182;-89
2022/09/15 01:18:14;;;;;;;3.58;2.42;;;;;;;17.88;100.00;96783.84;1699258;83;28206;-89
2022/09/15 01:21:05;;;;;;;5.08;2.70;;;;;;;17.90;100.00;96789.73;1691432;84;28468;-89
2022/09/15 01:24:01;;;;;;;2.58;2.25;;;;;;;17.90;100.00;96779.15;1612491;87;28186;-89
2022/09/15 01:26:46;;;;;;;4.40;2.98;;;;;;;17.89;100.00;96785.48;1603906;87;28101;-89
2022/09/15 01:29:45;;;;;;;2.77;2.00;;;;;;;17.89;100.00;96779.65;1665530;84;28159;-89
2022/09/15 01:35:31;;;;;;;3.58;2.30;;;;;;;17.92;100.00;96772.67;1700064;83;28073;-89
2022/09/15 01:37:59;;;;;;;;;;;;;;;17.91;100.00;96764.41;1663002;83;28123;-89
2022/09/15 01:40:29;;;;;;;3.87;2.10;;;;;;;17.90;100.00;96761.44;1693583;84;20484;-88
2022/09/15 01:42:57;;;;;;;2.70;2.33;;;;;;;17.89;100.00;96759.80;1698260;82;28158;-88
2022/09/15 01:45:30;;;;;;;2.77;2.17;;;;;;;17.89;100.00;96761.66;1700455;82;28017;-88
2022/09/15 01:47:58;;;;;;;2.65;2.10;;;;;;;17.91;100.00;96763.09;1702694;82;28233;-88
2022/09/15 01:50:36;;;;;;;4.80;2.55;;;;;;;17.94;100.00;96770.66;1693518;83;27998;-88
2022/09/15 01:53:13;;;;;;;3.83;1.70;;;;;;;17.96;100.00;96772.58;1695764;82;28017;-88
2022/09/15 01:55:43;;;;;;;2.40;2.20;;;;;;;17.99;100.00;96771.39;1695284;82;28159;-88
2022/09/15 01:58:10;;;;;;;3.25;2.10;;;;;;;18.02;100.00;96770.17;1675659;84;28111;-88
2022/09/15 02:00:42;;;;;;;4.72;2.12;;;;;;;18.03;100.00;96773.14;1685762;83;28080;-88
2022/09/15 02:03:21;;;;;;;2.75;2.20;;;;;;;18.05;100.00;96775.09;1704015;82;28155;-88
2022/09/15 02:06:00;;;;;;;2.25;2.00;;;;;;;18.06;100.00;96775.38;1676866;84;28172;-88
2022/09/15 02:08:54;;;;;;;3.33;2.33;;;;;;;18.07;100.00;96773.88;1663295;84;28124;-89
2022/09/15 02:11:26;;;;;;;3.37;2.10;;;;;;;18.08;100.00;96765.42;1703626;82;28098;-87
2022/09/15 02:14:02;;;;;;;3.72;2.17;;;;;;;18.07;100.00;96758.48;1651156;84;28027;-89
2022/09/15 02:16:32;;;;;;;3.10;2.05;;;;;;;18.06;100.00;96760.31;1650523;84;28203;-88
2022/09/15 02:19:13;;;;;;;2.17;1.87;;;;;;;18.08;100.00;96764.92;1701970;82;28104;-88
2022/09/15 02:21:45;;;;;;;3.43;2.07;;;;;;;18.08;100.00;96769.40;1656996;85;28110;-89
2022/09/15 02:24:17;;;;;;;2.67;2.27;;;;;;;18.10;100.00;96770.03;1678413;83;28128;-88
2022/09/15 02:26:47;;;;;;;2.85;2.00;;;;;;;18.10;100.00;96777.47;1671876;85;28460;-88
2022/09/15 02:29:19;;;;;;;3.40;2.20;;;;;;;18.09;100.00;96769.71;1704688;82;28161;-89
2022/09/15 02:31:47;;;;;;;3.13;1.57;;;;;;;18.12;100.00;96768.81;1693573;82;32999;-88
2022/09/15 02:34:35;;;;;;;3.00;2.27;;;;;;;18.13;100.00;96759.03;1654594;84;28093;-88
2022/09/15 02:37:11;;;;;;;4.35;2.15;;;;;;;18.13;100.00;96765.16;1693916;83;28016;-88
2022/09/15 02:39:41;;;;;;;4.37;2.17;;;;;;;18.15;100.00;96766.29;1687702;83;28101;-88
2022/09/15 02:42:14;;;;;;;2.92;2.40;;;;;;;18.16;100.00;96766.61;1686300;84;28128;-89
2022/09/15 02:44:47;;;;;;;2.70;2.27;;;;;;;18.13;100.00;96758.53;1688297;84;28096;-89
2022/09/15 02:47:15;;;;;;;3.10;2.08;;;;;;;18.13;100.00;96760.36;1658035;85;28099;-88
2022/09/15 02:49:41;;;;;;;2.90;2.40;;;;;;;18.11;100.00;96751.28;1689116;83;28144;-88
2022/09/15 02:52:13;;;;;;;3.08;2.17;;;;;;;18.09;100.00;96740.09;1689686;83;42361;-89
2022/09/15 02:54:42;;;;;;;3.80;2.05;;;;;;;18.09;100.00;96739.27;1687309;83;28093;-89
2022/09/15 02:57:08;;;;;;;2.90;2.20;;;;;;;18.11;100.00;96739.91;1692129;83;28073;-89
2022/09/15 03:02:26;;;;;;;5.00;2.60;;;;;;;18.05;100.00;96742.82;1687419;82;28081;-89
2022/09/15 03:04:52;;;;;;;4.97;2.50;;;;;;;18.06;100.00;96752.38;1686293;82;28021;-89
2022/09/15 03:07:19;;;;;;;3.37;2.67;;;;;;;18.06;100.00;96748.91;1687773;84;28195;-89
2022/09/15 03:09:45;;;;;;;3.72;2.60;;;;;;;18.06;100.00;96747.58;1689185;84;28093;-89
2022/09/15 03:12:12;;;;;;;2.37;2.17;;;;;;;18.04;100.00;96749.62;1669135;84;28061;-89
2022/09/15 03:14:39;;;;;;;6.00;2.22;;;;;;;18.04;100.00;96744.33;1688905;84;28166;-89
2022/09/15 03:17:05;;;;;;;2.37;2.17;;;;;;;18.05;100.00;96744.15;1691070;84;28093;-89
2022/09/15 03:19:31;;;;;;;2.85;2.02;;;;;;;18.07;100.00;96745.25;1689718;82;28033;-88
2022/09/15 03:21:58;;;;;;;3.10;2.00;;;;;;;18.08;100.00;96745.57;1696988;82;42396;-89
2022/09/15 03:24:24;;;;;;;2.60;2.40;;;;;;;18.06;100.00;96743.11;1689710;82;28030;-89
2022/09/15 03:26:51;;;;;;;3.72;2.12;;;;;;;18.07;100.00;96745.25;1691942;82;28201;-89
2022/09/15 03:29:21;;;;;;;5.05;2.02;;;;;;;18.05;100.00;96742.00;1691261;82;28155;-89
2022/09/15 03:31:45;;;;;;;2.52;2.10;;;;;;;18.02;100.00;96747.67;1684378;84;28116;-89
2022/09/15 03:34:12;;;;;;;3.58;2.30;;;;;;;18.01;100.00;96750.82;1691470;83;28062;-89
2022/09/15 03:36:38;;;;;;;2.92;2.00;;;;;;;18.00;100.00;96759.80;1694560;82;28130;-89
2022/09/15 03:39:04;;;;;;;6.33;2.33;;;;;;;17.97;100.00;96760.17;1687378;84;28089;-89
2022/09/15 03:41:30;;;;;;;3.98;1.95;;;;;;;17.96;100.00;96755.88;1690979;84;28096;-89
2022/09/15 03:43:57;;;;;;;4.22;2.25;;;;;;;17.98;100.00;96760.48;1693764;84;28080;-89
2022/09/15 03:46:23;;;;;;;3.12;2.17;;;;;;;17.97;100.00;96759.66;1689611;83;28013;-89
2022/09/15 03:48:49;;;;;;;3.30;2.05;;;;;;;17.98;100.00;96757.34;1666278;84;28095;-89
2022/09/15 03:51:15;;;;;;;3.75;2.20;;;;;;;17.98;100.00;96752.05;1689376;84;28010;-89
2022/09/15 03:53:42;;;;;;;2.65;1.90;;;;;;;18.01;100.00;96752.64;1691980;82;28132;-89
2022/09/15 03:56:12;;;;;;;2.08;1.90;;;;;;;18.01;100.00;96748.67;1687814;84;28111;-89
2022/09/15 03:58:41;;;;;;;2.05;1.87;;;;;;;18.03;100.00;96751.95;1686736;84;28093;-89
2022/09/15 04:01:19;;;;;;;3.17;1.70;;;;;;;18.05;100.00;96744.66;1689608;84;28148;-88
2022/09/15 04:03:47;;;;;;;2.50;1.72;;;;;;;18.06;100.00;96747.08;1670736;84;28112;-88
2022/09/15 04:06:14;;;;;;;2.33;1.87;;;;;;;18.09;100.00;96741.91;1705203;83;28125;-89
2022/09/15 04:08:40;;;;;;;3.33;1.80;;;;;;;18.09;100.00;96748.53;1669453;84;28206;-88
2022/09/15 04:11:09;;;;;;;2.90;2.00;;;;;;;18.12;100.00;96760.05;1675072;84;28128;-88
2022/09/15 04:13:37;;;;;;;2.37;2.17;;;;;;;18.14;100.00;96753.55;1709608;83;28191;-88
2022/09/15 04:16:07;;;;;;;1.67;1.47;;;;;;;18.17;100.00;96757.62;1709272;83;28029;-88
2022/09/15 04:18:44;;;;;;;2.30;1.75;;;;;;;18.19;100.00;96756.94;1709198;83;28119;-88
2022/09/15 04:21:16;;;;;;;3.25;1.95;;;;;;;18.24;100.00;96757.98;1709727;83;28139;-89
2022/09/15 04:23:46;;;;;;;1.90;1.70;;;;;;;18.27;100.00;96748.84;1709029;83;28155;-88
2022/09/15 04:26:30;;;;;;;4.03;1.85;;;;;;;18.25;100.00;96749.03;1709476;83;28069;-88
2022/09/15 04:28:57;;;;;;;4.65;2.00;;;;;;;18.26;100.00;96752.50;1709426;83;28185;-89
2022/09/15 04:31:28;;;;;;;2.20;1.77;;;;;;;18.24;100.00;96746.57;1709637;83;28051;-87
2022/09/15 04:33:55;;;;;;;3.02;1.92;;;;;;;18.20;100.00;96746.66;1708582;83;28057;-89
2022/09/15 04:36:23;;;;;;;2.12;1.70;;;;;;;18.17;100.00;96751.00;1711238;82;28174;-89
2022/09/15 04:38:50;;;;;;;2.30;1.75;;;;;;;18.18;100.00;96755.30;1709152;82;28157;-88
2022/09/15 04:41:19;;;;;;;4.62;1.80;;;;;;;18.14;100.00;96746.94;1709486;83;28202;-88
2022/09/15 04:43:46;;;;;;;2.62;1.75;;;;;;;18.12;100.00;96748.95;1709437;83;28112;-88
2022/09/15 04:46:14;;;;;;;3.60;1.60;;;;;;;18.11;100.00;96745.20;1709054;83;28198;-88
2022/09/15 04:48:40;;;;;;;2.42;1.60;;;;;;;18.13;100.00;96749.77;1709252;83;28076;-89
2022/09/15 04:51:10;;;;;;;3.90;1.98;;;;;;;18.15;100.00;96750.41;1684455;83;28129;-88
2022/09/15 04:53:40;;;;;;;3.35;1.60;;;;;;;18.14;100.00;96752.73;1708807;82;28719;-88
2022/09/15 04:56:10;;;;;;;3.92;1.77;;;;;;;18.17;100.00;96758.45;1709280;83;28165;-88
2022/09/15 04:58:38;;;;;;;3.08;1.70;;;;;;;18.18;100.00;96756.12;1709675;83;28187;-89
2022/09/15 05:01:14;;;;;;;4.62;1.82;;;;;;;18.15;100.00;96755.20;1709712;83;28025;-89
2022/09/15 05:03:42;;;;;;;2.83;1.77;;;;;;;18.14;100.00;96762.00;1707142;82;28089;-88
2022/09/15 05:06:12;;;;;;;3.87;1.90;;;;;;;18.15;100.00;96760.49;1715176;83;28072;-88
2022/09/15 05:08:41;;;;;;;1.40;1.30;;;;;;;18.16;100.00;96762.13;1716734;82;28103;-89
2022/09/15 05:11:11;;;;;;;2.67;1.82;;;;;;;18.17;100.00;96750.50;1716492;83;28064;-88
2022/09/15 05:13:39;;;;;;;2.20;1.85;;;;;;;18.18;100.00;96752.64;1716831;83;28113;-89
2022/09/15 05:16:10;;;;;;;2.83;1.40;;;;;;;18.17;100.00;96764.25;1716813;82;28138;-88
2022/09/15 05:18:38;;;;;;;2.85;1.32;;;;;;;18.16;100.00;96754.70;1692131;82;28195;-88
2022/09/15 05:21:05;;;;;;;1.52;1.42;;;;;;;18.15;100.00;96754.37;1716653;82;28049;-88
2022/09/15 05:23:34;;;;;;;2.00;1.32;;;;;;;18.17;100.00;96749.69;1716272;82;28217;-88
2022/09/15 05:26:05;;;;;;;1.75;1.42;;;;;;;18.17;100.00;96737.77;1716434;82;28080;-88
2022/09/15 05:28:35;;;;;;;2.45;1.50;;;;;;;18.16;100.00;96726.39;1690343;83;28007;-88
2022/09/15 05:31:08;;;;;;;3.22;1.60;;;;;;;18.16;100.00;96727.71;1716560;82;28100;-88
2022/09/15 05:33:34;;;;;;;2.20;1.80;;;;;;;18.17;100.00;96727.17;1716512;83;28099;-89
2022/09/15 05:36:01;;;;;;;2.98;1.45;;;;;;;18.16;100.00;96725.06;1689764;83;28076;-89
2022/09/15 05:38:32;;;;;;;2.62;1.30;;;;;;;18.17;100.00;96716.59;1716675;83;28084;-88
2022/09/15 05:41:07;;;;;;;3.92;1.62;;;;;;;18.18;100.00;96731.47;1714072;82;28099;-88
2022/09/15 05:43:34;;;;;;;1.25;1.15;;;;;;;18.17;100.00;96735.94;1716594;83;28084;-88
2022/09/15 05:46:02;;;;;;;3.10;1.30;;;;;;;18.20;100.00;96730.77;1716360;83;28095;-88
2022/09/15 05:48:29;;;;;;;2.10;1.30;;;;;;;18.18;100.00;96732.79;1716928;82;28095;-88
2022/09/15 05:50:56;;;;;;;2.20;1.30;;;;;;;18.19;100.00;96733.11;1716801;82;28169;-89
2022/09/15 05:53:30;;;;;;;1.85;1.20;;;;;;;18.19;100.00;96737.90;1716631;83;28119;-89
2022/09/15 05:55:58;;;;;;;1.30;1.20;;;;;;;18.21;100.00;96736.39;1716572;82;28084;-89
2022/09/15 05:58:29;;;;;;;2.02;1.20;;;;;;;18.22;100.00;96739.35;1716352;82;28147;-88
2022/09/15 06:00:56;;;;;;;1.23;1.07;;;;;;;18.22;100.00;96742.00;1717057;82;34156;-89
2022/09/15 06:03:23;;;;;;;1.77;1.07;;;;;;;18.22;100.00;96747.30;1712325;81;28148;-88
2022/09/15 06:06:00;;;;;;;2.75;1.12;;;;;;;18.21;100.00;96750.45;1709388;83;28085;-88
2022/09/15 06:08:38;;;;;;;1.77;1.05;;;;;;;18.22;100.00;96740.67;1709723;83;28102;-88
2022/09/15 06:11:08;;;;;;;2.60;1.37;;;;;;;18.22;100.00;96748.62;1709493;83;28001;-88
2022/09/15 06:13:40;;;;;;;2.33;1.22;;;;;;;18.24;100.00;96738.63;1709660;83;28082;-88
2022/09/15 06:16:13;;;;;;;1.42;1.15;;;;;;;18.25;100.00;96743.73;1709710;83;28080;-88
2022/09/15 06:18:40;;;;;;;2.90;1.47;;;;;;;18.24;100.00;96744.75;1707375;83;28219;-89
2022/09/15 06:21:23;;;;;;;1.20;1.10;;;;;;;18.24;100.00;96741.28;1709558;83;28120;-88
2022/09/15 06:23:56;;;;;;;4.08;1.10;;;;;;;18.24;100.00;96749.22;1708306;83;28072;-89
2022/09/15 06:26:23;;;;;;;1.82;1.12;;;;;;;18.24;100.00;96753.19;1708176;83;28051;-89
2022/09/15 06:28:59;;;;;;;1.22;0.95;;;;;;;18.24;100.00;96762.46;1709572;83;28077;-89
2022/09/15 06:31:33;;;;;;;3.95;1.20;;;;;;;18.23;100.00;96772.73;1709256;82;28040;-89
2022/09/15 06:34:02;;;;;;;3.87;1.27;;;;;;;18.16;100.00;96804.50;1709584;83;28092;-89
2022/09/15 06:36:31;;;;;;;1.75;1.45;;;;;;;18.06;100.00;96832.30;1711464;82;28112;-89
2022/09/15 06:38:58;;;;;;;2.35;1.55;;;;;;;17.89;100.00;96839.73;1709417;83;28179;-89
2022/09/15 06:41:24;;;;;;;1.40;1.20;;;;;;;17.71;100.00;96842.02;1709048;83;28103;-89
2022/09/15 06:43:53;;;;;;;3.20;1.15;;;;;;;17.57;100.00;96845.00;1709359;83;28092;-90
2022/09/15 06:46:27;;;;;;;1.80;1.02;;;;;;;17.46;100.00;96861.37;1709172;83;28080;-89
2022/09/15 06:48:54;;;;;;;1.20;1.10;;;;;;;17.37;100.00;96872.59;1709703;83;28111;-89
2022/09/15 06:51:23;;;;;;;1.55;1.17;;;;;;;17.30;100.00;96878.30;1712962;82;28072;-89
2022/09/15 06:53:52;;;;;;;1.37;1.27;;;;;;;17.25;100.00;96889.95;1708854;83;28088;-89
2022/09/15 06:56:20;;;;;;;2.12;1.25;;;;;;;17.22;100.00;96894.30;1709333;83;28200;-89
2022/09/15 06:58:50;;;;;;;1.57;0.98;;;;;;;17.20;100.00;96904.72;1709687;83;28094;-89
2022/09/15 07:01:21;;;;;;;1.45;1.35;;;;;;;17.17;100.00;96907.25;1709502;83;28146;-89
2022/09/15 07:03:55;;;;;;;1.60;0.85;;;;;;;17.18;100.00;96915.51;1692197;83;28135;-89
2022/09/15 07:06:31;;;;;;;2.45;0.90;;;;;;;17.13;100.00;96913.89;1678981;85;28144;-88
2022/09/15 07:09:01;;;;;;;1.10;0.82;;;;;;;17.20;100.00;96913.98;1679406;83;28081;-88
2022/09/15 07:11:25;;;;;;;1.85;1.00;;;;;;;17.25;100.00;96918.20;1679595;84;28024;-89
2022/09/15 07:13:52;;;;;;;1.62;1.00;;;;;;;17.34;100.00;96930.33;1679163;84;28108;-88
2022/09/15 07:16:24;;;;;;;1.00;0.98;;;;;;;17.42;100.00;96930.20;1679281;84;28072;-89
2022/09/15 07:18:50;;;;;;;3.67;0.80;;;;;;;17.43;100.00;96940.61;1678431;83;28077;-89
2022/09/15 07:21:19;;;;;;;2.05;1.00;;;;;;;17.48;100.00;96946.16;1678270;85;28056;-88
2022/09/15 07:23:46;;;;;;;2.67;0.90;;;;;;;17.47;100.00;96948.48;1663629;84;28095;-89
2022/09/15 07:26:15;;;;;;;1.47;1.12;;;;;;;17.47;100.00;96953.77;1679963;84;28009;-88
2022/09/15 07:28:46;;;;;;;0.95;0.78;;;;;;;17.48;100.00;96962.03;1679539;83;28054;-89
2022/09/15 07:31:14;;;;;;;0.68;0.68;;;;;;;17.45;100.00;96966.87;1676187;85;28073;-88
2022/09/15 07:33:40;;;;;;;1.45;0.85;;;;;;;17.42;100.00;96975.16;1678770;84;28080;-89
2022/09/15 07:36:09;;;;;;;0.90;0.90;;;;;;;17.47;100.00;96978.07;1679823;84;28132;-88
2022/09/15 07:38:41;;;;;;;2.30;0.72;;;;;;;17.50;100.00;96981.69;1679841;83;28085;-88
2022/09/15 07:41:10;;;;;;;0.90;0.90;;;;;;;17.52;100.00;96987.59;1680412;84;28092;-88
2022/09/15 07:43:37;;;;;;;0.82;0.82;;;;;;;17.55;100.00;96991.20;1678446;85;28182;-89
2022/09/15 07:46:04;;;;;;;1.22;0.80;;;;;;;17.54;100.00;96990.87;1678012;84;28093;-88
2022/09/15 07:48:31;;;;;;;2.80;0.62;;;;;;;17.52;100.00;97002.97;1678931;85;28188;-88
2022/09/15 07:51:01;;;;;;;1.05;0.80;;;;;;;17.56;100.00;97011.38;1679315;84;28110;-88
2022/09/15 07:53:29;;;;;;;1.07;0.70;;;;;;;17.61;100.00;97014.31;1679771;83;28116;-89
2022/09/15 07:55:56;;;;;;;0.93;0.70;;;;;;;17.62;100.00;97023.06;1678506;84;28120;-89
2022/09/15 07:58:34;;;;;;;1.10;0.70;;;;;;;17.64;100.00;97029.80;1679818;85;28212;-88
2022/09/15 08:01:03;;;;;;;0.70;0.70;;;;;;;17.67;100.00;97031.27;1678491;85;28096;-89
2022/09/15 08:03:30;;;;;;;1.27;0.80;;;;;;;17.67;100.00;97024.65;1687179;83;28107;-89
2022/09/15 08:06:02;;;;;;;0.80;0.70;;;;;;;17.71;100.00;97036.50;1706775;83;28439;-89
2022/09/15 08:08:29;;;;;;;0.60;0.60;;;;;;;17.71;100.00;97042.61;1705383;82;28061;-89
2022/09/15 08:10:57;;;;;;;1.72;0.50;;;;;;;17.76;100.00;97042.88;1708731;82;28045;-89
2022/09/15 08:13:29;;;;;;;1.27;0.68;;;;;;;17.81;100.00;97046.28;1705229;82;28088;-88
2022/09/15 08:15:55;;;;;;;1.20;0.80;;;;;;;17.82;100.00;97046.60;1706693;83;28085;-89
2022/09/15 08:18:25;;;;;;;0.70;0.70;;;;;;;17.85;100.00;97054.16;1706637;83;28064;-89
2022/09/15 08:20:54;;;;;;;2.75;0.90;;;;;;;17.87;100.00;97054.30;1706268;83;28072;-89
2022/09/15 08:23:22;;;;;;;0.80;0.80;;;;;;;17.91;100.00;97055.56;1706667;83;28080;-89
2022/09/15 08:25:50;;;;;;;0.90;0.90;;;;;;;17.93;100.00;97056.70;1706673;82;28103;-89
2022/09/15 08:28:17;;;;;;;0.82;0.78;;;;;;;17.93;100.00;97062.00;1708002;82;28155;-89
2022/09/15 08:30:44;;;;;;;1.55;0.90;;;;;;;17.96;100.00;97066.91;1686449;83;28147;-89
2022/09/15 08:33:10;;;;;;;2.40;1.02;;;;;;;17.96;100.00;97070.38;1706728;83;28084;-89
2022/09/15 08:35:36;;;;;;;0.70;0.68;;;;;;;17.96;100.00;97069.05;1706898;82;28147;-89
2022/09/15 08:38:05;;;;;;;1.15;0.75;;;;;;;17.98;100.00;97068.38;1706563;83;28088;-89
2022/09/15 08:40:41;;;;;;;1.20;0.82;;;;;;;18.03;100.00;97070.45;1706513;83;28186;-89
2022/09/15 08:43:20;;;;;;;2.65;0.90;;;;;;;18.08;100.00;97077.84;1703514;82;28108;-89
2022/09/15 08:46:01;;;;;;;2.58;1.12;;;;;;;18.05;100.00;97080.37;1705647;82;28029;-89
2022/09/15 08:48:37;;;;;;;1.27;1.10;;;;;;;18.03;100.00;97088.16;1705419;83;28196;-90
2022/09/15 08:51:07;;;;;;;1.35;1.17;;;;;;;18.04;100.00;97084.52;1706406;82;28199;-89
2022/09/15 08:53:40;;;;;;;1.52;0.90;;;;;;;18.07;100.00;97079.66;1684374;83;28002;-89
2022/09/15 08:56:16;;;;;;;1.75;1.22;;;;;;;18.11;100.00;97080.91;1706234;83;28072;-89
2022/09/15 08:58:45;;;;;;;1.40;1.00;;;;;;;18.16;100.00;97073.77;1705446;83;28083;-89
2022/09/15 09:01:34;;;;;;;3.33;0.95;;;;;;;18.20;100.00;97082.97;1706385;82;28077;-89
2022/09/15 09:04:19;;;;;;;1.62;1.00;;;;;;;18.22;100.00;97078.31;1686657;82;28113;-89
2022/09/15 09:06:53;;;;;;;0.93;0.88;;;;;;;18.23;100.00;97080.75;1685835;84;28159;-89
2022/09/15 09:09:25;;;;;;;1.15;0.93;;;;;;;18.25;100.00;97088.52;1687825;84;28127;-89
2022/09/15 09:12:17;;;;;;;3.42;1.10;;;;;;;18.25;100.00;97085.87;1690707;84;28172;-89
2022/09/15 09:14:51;;;;;;;;;;;;;;;18.26;100.00;97080.39;1693591;84;28097;-89
2022/09/15 09:17:21;;;;;;;2.65;1.45;;;;;;;18.31;100.00;97083.80;1688520;84;22059;-89
2022/09/15 09:20:08;;;;;;;2.55;1.00;;;;;;;18.29;100.00;97088.45;1688053;84;28089;-89
2022/09/15 09:22:39;;;;;;;1.50;1.10;;;;;;;18.27;100.00;97082.53;1683705;84;28510;-89
2022/09/15 09:25:09;;;;;;;2.67;1.27;;;;;;;18.29;100.00;97076.02;1687794;83;28006;-90
2022/09/15 09:27:37;;;;;;;2.17;1.40;;;;;;;18.34;100.00;97072.81;1690724;83;28037;-89
2022/09/15 09:30:16;;;;;;;1.40;1.30;;;;;;;18.41;100.00;97073.70;1686294;83;28077;-88
2022/09/15 09:32:52;;;;;;;3.30;1.40;;;;;;;18.49;100.00;97071.44;1689950;84;28103;-89
2022/09/15 09:35:25;;;;;;;1.42;1.12;;;;;;;18.55;100.00;97075.48;1684943;83;28140;-90
2022/09/15 09:37:55;;;;;;;1.62;1.20;;;;;;;18.61;100.00;97074.72;1690154;83;28065;-88
2022/09/15 09:40:30;;;;;;;1.40;1.00;;;;;;;18.68;100.00;97066.84;1683275;83;28138;-89
2022/09/15 09:42:56;;;;;;;2.37;1.12;;;;;;;18.71;100.00;97065.15;1690240;83;28096;-89
2022/09/15 09:45:23;;;;;;;1.65;1.35;;;;;;;18.76;100.00;97065.39;1686552;84;28136;-88
2022/09/15 09:47:49;;;;;;;4.15;1.22;;;;;;;18.80;100.00;97070.11;1688112;84;28071;-89
2022/09/15 09:50:34;;;;;;;1.07;0.98;;;;;;;18.82;100.00;97061.16;1686990;83;27998;-88
2022/09/15 09:53:08;;;;;;;1.82;1.30;;;;;;;18.83;100.00;97062.27;1690757;83;28168;-89
2022/09/15 09:55:35;;;;;;;1.12;0.98;;;;;;;18.85;100.00;97060.25;1667279;84;28220;-89
2022/09/15 09:58:20;;;;;;;1.25;1.15;;;;;;;18.85;100.00;97058.92;1689762;83;28134;-90
2022/09/15 10:00:47;;;;;;;2.08;1.15;;;;;;;18.85;100.00;97058.11;1688608;83;28095;-90
2022/09/15 10:03:19;;;;;;;2.40;1.60;;;;;;;18.86;100.00;97054.45;1689272;83;28077;-89
2022/09/15 10:06:01;;;;;;;1.72;1.37;;;;;;;18.84;100.00;97055.13;1683693;83;28040;-89
2022/09/15 10:08:32;;;;;;;1.90;1.40;;;;;;;18.84;100.00;97052.48;1690143;83;28128;-89
2022/09/15 10:11:04;;;;;;;2.33;1.55;;;;;;;18.86;100.00;97053.13;1687352;84;28144;-89
2022/09/15 10:13:35;;;;;;;2.58;1.60;;;;;;;18.85;100.00;97039.05;1684633;84;28077;-89
2022/09/15 10:16:04;;;;;;;4.22;1.40;;;;;;;18.86;100.00;97036.71;1687918;83;28048;-88
2022/09/15 10:18:36;;;;;;;2.90;1.70;;;;;;;18.88;100.00;97045.27;1684067;83;28081;-89
2022/09/15 10:21:06;;;;;;;2.20;1.60;;;;;;;18.89;100.00;97032.34;1684930;84;28032;-90
2022/09/15 10:23:33;;;;;;;2.80;1.40;;;;;;;18.91;100.00;97032.16;1684945;83;28138;-90
2022/09/15 10:26:22;;;;;;;1.40;1.17;;;;;;;18.93;100.00;97032.25;1688604;83;28062;-90
2022/09/15 10:29:10;;;;;;;1.20;1.10;;;;;;;18.98;100.00;97030.38;1685568;83;28103;-90
2022/09/15 10:31:40;;;;;;;2.50;1.37;;;;;;;19.00;100.00;97033.12;1687920;84;28085;-89
2022/09/15 10:34:29;;;;;;;1.72;1.40;;;;;;;19.08;100.00;97029.52;1688933;83;28081;-89
2022/09/15 10:37:23;;;;;;;2.08;1.30;;;;;;;19.11;100.00;97029.94;1688966;83;28230;-90
2022/09/15 10:40:01;;;;;;;1.60;1.50;;;;;;;19.13;100.00;97027.92;1692602;82;28112;-90
2022/09/15 10:42:50;;;;;;;1.40;1.30;;;;;;;19.16;100.00;97026.70;1689378;83;28104;-90
2022/09/15 10:45:37;;;;;;;1.52;1.20;;;;;;;19.18;100.00;97021.52;1685576;84;28112;-90
2022/09/15 10:48:42;;;;;;;2.72;1.17;;;;;;;19.17;100.00;97019.88;1686850;84;28018;-89
2022/09/15 10:51:45;;;;;;;1.82;1.62;;;;;;;19.13;100.00;97017.81;1688118;83;28148;-89
2022/09/15 10:54:36;;;;;;;1.70;1.40;;;;;;;19.16;100.00;97013.44;1633911;85;28059;-89
2022/09/15 10:57:36;;;;;;;1.42;1.17;;;;;;;19.21;100.00;97014.98;1639035;85;28074;-89
2022/09/15 11:00:17;;;;;;;1.70;1.60;;;;;;;19.20;100.00;97008.86;1631713;85;28315;-88
2022/09/15 11:03:00;;;;;;;;;;;;;;;19.24;100.00;97021.25;1644754;85;28697;-89
2022/09/15 11:05:30;;;;;;;2.08;1.37;;;;;;;19.21;100.00;97010.51;1648891;84;26217;-89
2022/09/15 11:08:17;;;;;;;1.57;1.40;;;;;;;19.17;100.00;97001.31;1685470;84;28085;-89
2022/09/15 11:10:56;;;;;;;1.57;1.47;;;;;;;19.18;100.00;96998.16;1688955;83;28070;-89
2022/09/15 11:13:40;;;;;;;1.90;1.60;;;;;;;19.17;100.00;96994.69;1691935;83;28170;-89
2022/09/15 11:16:30;;;;;;;2.77;1.05;;;;;;;19.14;100.00;96995.09;1682577;84;28075;-89
2022/09/15 11:19:03;;;;;;;2.72;1.25;;;;;;;19.09;100.00;96991.38;1678045;85;28087;-90
2022/09/15 11:21:47;;;;;;;2.75;1.22;;;;;;;19.15;100.00;96990.58;1714158;83;28133;-89
2022/09/15 11:24:20;;;;;;;2.50;1.02;;;;;;;19.15;100.00;96978.64;1698386;82;28271;-89
2022/09/15 11:26:52;;;;;;;1.82;1.40;;;;;;;19.23;100.00;96977.16;1680535;84;28155;-89
2022/09/15 11:29:28;;;;;;;2.15;1.40;;;;;;;19.31;100.00;96973.00;1679858;83;28097;-89
2022/09/15 11:32:03;;;;;;;2.67;1.35;;;;;;;19.35;100.00;96974.77;1716893;82;28193;-89
2022/09/15 11:34:35;;;;;;;2.40;1.12;;;;;;;19.37;100.00;96968.23;1669363;83;28102;-89
2022/09/15 11:37:13;;;;;;;1.70;1.20;;;;;;;19.38;100.00;96972.53;1715077;81;28079;-89
2022/09/15 11:40:05;;;;;;;3.12;1.27;;;;;;;19.34;100.00;96966.50;1691463;82;28144;-89
2022/09/15 11:42:41;;;;;;;1.72;1.02;;;;;;;19.21;100.00;96961.44;1697876;82;28057;-89
2022/09/15 11:45:11;;;;;;;2.08;1.25;;;;;;;19.20;100.00;96954.49;1697947;82;28002;-89
2022/09/15 11:47:44;;;;;;;2.58;1.10;;;;;;;19.27;100.00;96952.37;1697589;82;28132;-89
2022/09/15 11:50:20;;;;;;;1.62;1.42;;;;;;;19.37;100.00;96949.66;1667637;83;28165;-88
2022/09/15 11:53:12;;;;;;;2.05;0.90;;;;;;;19.31;100.00;96945.15;1707755;83;28174;-88
2022/09/15 11:55:54;;;;;;;3.52;1.45;;;;;;;19.19;100.00;96946.75;1712506;82;28123;-88
2022/09/15 11:58:36;;;;;;;1.47;1.07;;;;;;;19.14;100.00;96951.84;1687787;84;28206;-88